Terminal Aerodrome Forecast
Issued by NWS Sterling, VA

Home | Current Version | Previous Version | Text Only | Print | Product List | Glossary On
Versions: 1 2 3 4 5 6 7 8 9 10 11 12 13 14
000
FTUS41 KLWX 211730
TAFCHO
TAF
KCHO 211730Z 2118/2218 VRB04KT P6SM FEW060 SCT200
     FM220600 00000KT 2SM BR FEW040 FEW250
     FM221200 00000KT 3SM BR FEW200 FEW250
     FM221500 VRB03KT P6SM FEW060 FEW250=

USA.gov is the U.S. government's official web portal to all federal, state and local government web resources and services.